EGAA/BFS METAR and TAF weather

Enter ICAO airport designator
Station Type Date Time Source
EGAA METAR 2019/04/24 21:50 UTC NOAA

EGAA 242150Z 18005KT 6000 -RA FEW005 BKN008 OVC017 10/09 Q0990 REDZ


Station Type Date Time Source
EGAA Decoded METAR 2019/04/24 21:50 UTC NOAA

Belfast / Aldergrove Airport, United Kingdom (EGAA) 54-39N 006-13W 0M
Apr 24, 2019 - 05:50 PM EDT / 2019.04.24 2150 UTC
Wind: from the S (180 degrees) at 6 MPH (5 KT):0
Visibility: 3 mile(s):0
Sky conditions: overcast
Weather: light rain
Temperature: 50 F (10 C)
Dew Point: 48 F (9 C)
Relative Humidity: 93%
Pressure (altimeter): 29.23 in. Hg (0990 hPa)
ob: EGAA 242150Z 18005KT 6000 -RA FEW005 BKN008 OVC017 10/09 Q0990 REDZ
cycle: 22

Station Type Date Time Source
EGAA TAF 2019/04/24 21:28 UTC NOAA

TAF
AMD EGAA 242121Z 2421/2518 15009KT 9999 FEW015 SCT030
TEMPO 2421/2502 3000 SHRA SCT005 BKN008 PROB40
TEMPO 2510/2516 6000 +SHRA BKN012 BKN020CB

Example: see airport list